Time;durP1;ratioP1;P1;durP2;ratioP2;P2;SDS_P1;SDS_P2;PMS_P1;PMS_P2;Temp;Humidity;BMP_temperature;BMP_pressure;BME280_temperature;BME280_humidity;BME280_pressure;Samples;Min_cycle;Max_cycle;Signal;HPM_P1;HPM_P2
2022/03/07 00:02:16;;;;;;;4.38;2.17;;;3.10;99.90;;;;;;5107512;28;20043;-72
2022/03/07 00:04:42;;;;;;;4.07;2.45;;;3.10;99.90;;;;;;5117266;27;20040;-71
2022/03/07 00:07:07;;;;;;;5.03;2.35;;;2.90;99.90;;;;;;5094069;28;20043;-72
2022/03/07 00:09:33;;;;;;;3.53;2.22;;;2.70;99.90;;;;;;5093996;28;20441;-71
2022/03/07 00:11:59;;;;;;;5.25;3.15;;;2.90;99.90;;;;;;5090045;28;20039;-73
2022/03/07 00:14:24;;;;;;;5.18;3.00;;;2.90;99.90;;;;;;5122509;27;20088;-72
2022/03/07 00:16:50;;;;;;;4.63;3.05;;;2.90;99.90;;;;;;5099621;28;20036;-74
2022/03/07 00:19:16;;;;;;;5.90;3.10;;;3.20;99.90;;;;;;5099468;28;20039;-74
2022/03/07 00:21:42;;;;;;;5.47;3.10;;;2.70;99.90;;;;;;5093474;28;20036;-75
2022/03/07 00:24:08;;;;;;;5.40;3.15;;;2.90;99.90;;;;;;5060653;28;20036;-71
2022/03/07 00:26:34;;;;;;;4.50;2.47;;;2.50;99.90;;;;;;5073616;28;20109;-72
2022/03/07 00:29:00;;;;;;;3.53;2.78;;;2.80;99.90;;;;;;5107552;28;20043;-73
2022/03/07 00:31:26;;;;;;;5.93;3.60;;;3.40;99.90;;;;;;5100552;28;20038;-74
2022/03/07 00:33:51;;;;;;;5.85;2.88;;;3.80;99.90;;;;;;5097782;28;20048;-73
2022/03/07 00:36:19;;;;;;;3.88;2.60;;;3.60;99.90;;;;;;5102076;28;20138;-73
2022/03/07 00:38:46;;;;;;;5.03;2.50;;;3.10;99.90;;;;;;5111124;28;20039;-73
2022/03/07 00:41:12;;;;;;;3.97;2.72;;;2.80;99.90;;;;;;5093803;28;20123;-74
2022/03/07 00:43:39;;;;;;;3.45;2.30;;;3.10;99.90;;;;;;5103136;28;20453;-74
2022/03/07 00:46:04;;;;;;;3.13;2.38;;;4.20;99.90;;;;;;5112055;27;20071;-72
2022/03/07 00:48:30;;;;;;;6.57;2.90;;;2.90;99.90;;;;;;5094654;27;20044;-72
2022/03/07 00:50:56;;;;;;;4.13;3.20;;;3.00;99.90;;;;;;5099565;27;20401;-72
2022/03/07 00:53:26;;;;;;;4.57;2.83;;;3.20;99.90;;;;;;5123557;27;20046;-73
2022/03/07 00:55:53;;;;;;;4.20;2.70;;;2.90;99.90;;;;;;5115578;27;20115;-72
2022/03/07 00:58:19;;;;;;;3.78;2.72;;;2.80;99.90;;;;;;5092778;28;20043;-72
2022/03/07 01:00:45;;;;;;;6.82;2.92;;;2.90;99.90;;;;;;5109345;27;20172;-72
2022/03/07 01:03:13;;;;;;;5.20;2.80;;;3.10;99.90;;;;;;5103633;28;20123;-73
2022/03/07 01:05:40;;;;;;;3.88;2.40;;;2.80;99.90;;;;;;5104161;28;20037;-73
2022/03/07 01:08:06;;;;;;;3.85;2.67;;;2.90;99.90;;;;;;5093751;28;20043;-73
2022/03/07 01:10:32;;;;;;;4.50;2.67;;;3.00;99.90;;;;;;5095671;28;20390;-73
2022/03/07 01:12:58;;;;;;;3.53;2.80;;;3.10;99.90;;;;;;5097988;28;20510;-73
2022/03/07 01:15:24;;;;;;;3.75;2.72;;;3.50;99.90;;;;;;5094119;28;20039;-74
2022/03/07 01:17:50;;;;;;;3.33;2.30;;;4.00;99.90;;;;;;5092288;28;20036;-74
2022/03/07 01:20:16;;;;;;;3.88;2.55;;;3.00;99.90;;;;;;5092213;28;20383;-74
2022/03/07 01:22:42;;;;;;;3.78;2.40;;;2.80;99.90;;;;;;5091139;28;20035;-71
2022/03/07 01:25:10;;;;;;;3.47;2.83;;;3.60;99.90;;;;;;5092669;28;20057;-72
2022/03/07 01:27:36;;;;;;;3.63;2.50;;;3.00;99.90;;;;;;5092283;28;20043;-73
2022/03/07 01:30:04;;;;;;;2.80;2.42;;;3.00;99.90;;;;;;5109907;28;20096;-73
2022/03/07 01:32:29;;;;;;;4.47;2.78;;;3.10;99.90;;;;;;5091643;28;20059;-73
2022/03/07 01:34:55;;;;;;;4.22;2.53;;;3.50;99.90;;;;;;5092449;28;20040;-72
2022/03/07 01:37:21;;;;;;;4.00;2.58;;;3.20;99.90;;;;;;5065497;28;20445;-74
2022/03/07 01:39:47;;;;;;;6.32;2.72;;;3.20;99.90;;;;;;5089197;28;20119;-73
2022/03/07 01:42:13;;;;;;;5.18;2.55;;;2.90;99.90;;;;;;5076260;28;20093;-73
2022/03/07 01:44:38;;;;;;;3.10;2.35;;;3.20;99.90;;;;;;5092103;28;20035;-74
2022/03/07 01:47:05;;;;;;;4.50;2.42;;;3.00;99.90;;;;;;5093063;28;20032;-72
2022/03/07 01:49:31;;;;;;;5.63;2.78;;;3.50;99.90;;;;;;5109076;28;20055;-72
2022/03/07 01:51:57;;;;;;;5.65;2.85;;;3.30;99.90;;;;;;5092817;28;20803;-74
2022/03/07 01:54:24;;;;;;;6.47;2.70;;;3.30;99.90;;;;;;5084779;28;20142;-73
2022/03/07 01:56:52;;;;;;;6.55;2.83;;;3.00;99.90;;;;;;5111792;28;20074;-73
2022/03/07 01:59:24;;;;;;;6.10;2.60;;;4.10;99.90;;;;;;5089775;28;20116;-73
2022/03/07 02:01:50;;;;;;;4.60;2.70;;;3.20;99.90;;;;;;5108414;28;20048;-73
2022/03/07 02:04:17;;;;;;;3.42;2.65;;;3.30;99.90;;;;;;5093567;28;20032;-74
2022/03/07 02:06:45;;;;;;;4.22;2.55;;;4.30;99.90;;;;;;5091332;28;20032;-74
2022/03/07 02:09:11;;;;;;;4.88;2.58;;;3.30;99.90;;;;;;5103474;28;20043;-74
2022/03/07 02:11:38;;;;;;;8.07;2.90;;;4.30;99.90;;;;;;5104384;28;20036;-74
2022/03/07 02:14:23;;;;;;;6.70;2.70;;;4.30;99.90;;;;;;5072831;28;20361;-73
2022/03/07 02:16:51;;;;;;;4.57;2.85;;;3.30;99.90;;;;;;5092627;28;20047;-74
2022/03/07 02:19:16;;;;;;;6.57;3.35;;;3.30;99.90;;;;;;5092167;28;20434;-73
2022/03/07 02:21:49;;;;;;;5.18;3.00;;;2.90;99.90;;;;;;5090844;28;20119;-72
2022/03/07 02:24:16;;;;;;;3.63;2.80;;;3.40;99.90;;;;;;5107481;28;20093;-73
2022/03/07 02:26:42;;;;;;;4.25;3.00;;;3.20;99.90;;;;;;5075180;28;20050;-73
2022/03/07 02:29:09;;;;;;;4.40;2.78;;;3.30;99.90;;;;;;5107678;28;20036;-73
2022/03/07 02:31:36;;;;;;;4.05;2.50;;;3.10;99.90;;;;;;5090469;27;20126;-72
2022/03/07 02:34:03;;;;;;;4.28;3.00;;;3.00;99.90;;;;;;5093028;27;20089;-72
2022/03/07 02:36:30;;;;;;;5.93;2.50;;;3.00;99.90;;;;;;5109199;27;20027;-72
2022/03/07 02:38:55;;;;;;;6.93;2.83;;;3.90;99.90;;;;;;5096557;28;20070;-73
2022/03/07 02:41:21;;;;;;;6.50;2.60;;;4.20;99.90;;;;;;5101233;28;21030;-74
2022/03/07 02:43:47;;;;;;;5.22;2.67;;;3.30;99.90;;;;;;5094956;28;20118;-74
2022/03/07 02:46:13;;;;;;;6.88;2.70;;;3.40;99.90;;;;;;5096519;27;20092;-75
2022/03/07 02:48:40;;;;;;;5.85;2.60;;;3.30;99.90;;;;;;5077614;27;20044;-75
2022/03/07 02:51:06;;;;;;;5.47;2.80;;;3.20;99.90;;;;;;5094095;28;20042;-73
2022/03/07 02:53:32;;;;;;;4.22;2.70;;;3.30;99.90;;;;;;5105214;28;20395;-74
2022/03/07 02:55:58;;;;;;;5.57;2.85;;;3.20;99.90;;;;;;5113963;28;20031;-75
2022/03/07 02:58:23;;;;;;;5.40;3.00;;;3.20;99.90;;;;;;5112954;28;20031;-74
2022/03/07 03:00:49;;;;;;;6.30;2.88;;;3.60;99.90;;;;;;5115826;28;20040;-74
2022/03/07 03:03:15;;;;;;;6.05;3.22;;;3.20;99.90;;;;;;5074693;28;20044;-74
2022/03/07 03:05:41;;;;;;;4.68;3.00;;;3.50;99.90;;;;;;5074476;28;20028;-73
2022/03/07 03:08:07;;;;;;;8.45;3.30;;;3.00;99.90;;;;;;5090351;28;20079;-73
2022/03/07 03:10:33;;;;;;;4.57;3.28;;;3.30;99.90;;;;;;5077474;27;20126;-74
2022/03/07 03:12:58;;;;;;;4.03;3.03;;;3.30;99.90;;;;;;5094200;28;20134;-75
2022/03/07 03:15:24;;;;;;;3.80;2.92;;;3.20;99.90;;;;;;5094940;28;20039;-75
2022/03/07 03:17:50;;;;;;;4.60;3.00;;;3.20;99.90;;;;;;5110946;28;20078;-75
2022/03/07 03:20:16;;;;;;;7.15;2.90;;;3.80;99.90;;;;;;5093823;28;20111;-73
2022/03/07 03:22:44;;;;;;;4.00;2.80;;;3.10;99.90;;;;;;5113110;27;20041;-74
2022/03/07 03:25:11;;;;;;;9.00;3.75;;;3.50;99.90;;;;;;5086306;28;20477;-75
2022/03/07 03:27:38;;;;;;;5.50;3.42;;;3.60;99.90;;;;;;5077745;28;20123;-75
2022/03/07 03:30:05;;;;;;;8.50;3.30;;;3.60;99.90;;;;;;5093846;28;20043;-74
2022/03/07 03:32:32;;;;;;;6.18;3.08;;;3.30;99.90;;;;;;5104830;27;20096;-74
2022/03/07 03:34:57;;;;;;;3.65;2.95;;;3.30;99.90;;;;;;5112507;27;20043;-72
2022/03/07 03:37:27;;;;;;;7.63;3.10;;;3.50;99.90;;;;;;5095144;28;20508;-74
2022/03/07 03:39:53;;;;;;;6.75;3.35;;;3.50;99.90;;;;;;5096208;28;20042;-74
2022/03/07 03:42:21;;;;;;;5.20;3.13;;;3.40;99.90;;;;;;5096368;27;20475;-73
2022/03/07 03:44:48;;;;;;;5.15;3.63;;;3.40;99.90;;;;;;5117239;27;20106;-73
2022/03/07 03:47:14;;;;;;;4.85;3.25;;;3.60;99.90;;;;;;5089491;27;20035;-73
2022/03/07 03:49:39;;;;;;;7.90;3.70;;;3.60;99.90;;;;;;5095740;28;20039;-72
2022/03/07 03:52:06;;;;;;;6.38;2.90;;;3.50;99.90;;;;;;5081778;27;20097;-72
2022/03/07 03:54:31;;;;;;;6.00;3.15;;;3.50;99.90;;;;;;5112901;28;20174;-73
2022/03/07 03:56:57;;;;;;;4.82;3.28;;;3.30;99.90;;;;;;5077543;28;20449;-73
2022/03/07 03:59:23;;;;;;;5.75;3.10;;;3.10;99.90;;;;;;5084821;28;20122;-74
2022/03/07 04:01:49;;;;;;;5.78;3.13;;;3.00;99.90;;;;;;5108911;28;20133;-73
2022/03/07 04:04:15;;;;;;;5.40;3.00;;;3.50;99.90;;;;;;5092929;28;20040;-73
2022/03/07 04:06:42;;;;;;;4.47;3.67;;;3.20;99.90;;;;;;5110042;28;20521;-73
2022/03/07 04:09:16;;;;;;;6.28;3.13;;;3.00;99.90;;;;;;5108460;27;20128;-73
2022/03/07 04:11:41;;;;;;;5.15;3.10;;;3.10;99.90;;;;;;5090598;28;20031;-73
2022/03/07 04:14:07;;;;;;;4.20;3.20;;;3.10;99.90;;;;;;5110349;28;20529;-74
2022/03/07 04:16:35;;;;;;;4.05;3.03;;;3.10;99.90;;;;;;5094312;28;20027;-74
2022/03/07 04:19:02;;;;;;;4.28;2.85;;;3.00;99.90;;;;;;5093056;28;20071;-73
2022/03/07 04:21:28;;;;;;;4.15;3.00;;;3.00;99.90;;;;;;5111524;27;20360;-74
2022/03/07 04:23:54;;;;;;;6.40;3.55;;;3.20;99.90;;;;;;5071411;28;20105;-74
2022/03/07 04:26:21;;;;;;;4.18;3.08;;;3.20;99.90;;;;;;5118982;27;20039;-76
2022/03/07 04:28:46;;;;;;;4.20;3.13;;;3.30;99.90;;;;;;5109596;28;20040;-75
2022/03/07 04:31:12;;;;;;;8.35;3.25;;;3.30;99.90;;;;;;5076083;28;20380;-78
2022/03/07 04:33:38;;;;;;;7.97;3.47;;;3.20;99.90;;;;;;5085368;28;20093;-74
2022/03/07 04:36:05;;;;;;;6.32;3.90;;;3.70;99.90;;;;;;5085716;28;20036;-77
2022/03/07 04:38:31;;;;;;;6.25;3.40;;;3.10;99.90;;;;;;5093315;28;20036;-75
2022/03/07 04:40:57;;;;;;;8.48;4.03;;;3.30;99.90;;;;;;5094294;28;20061;-76
2022/03/07 04:43:22;;;;;;;5.65;4.20;;;4.80;99.90;;;;;;5090759;27;20427;-73
2022/03/07 04:45:48;;;;;;;7.20;4.70;;;3.40;99.90;;;;;;5095276;28;20372;-78
2022/03/07 04:48:14;;;;;;;7.00;4.60;;;3.40;99.90;;;;;;5090085;28;20088;-76
2022/03/07 04:50:43;;;;;;;6.30;4.53;;;3.90;99.90;;;;;;5092313;28;20036;-76
2022/03/07 04:53:08;;;;;;;6.75;4.63;;;4.10;99.90;;;;;;5091895;28;20039;-76
2022/03/07 04:55:34;;;;;;;9.40;4.60;;;4.40;99.90;;;;;;5076362;28;20127;-74
2022/03/07 04:58:00;;;;;;;5.75;4.30;;;3.50;99.90;;;;;;5075504;28;20112;-77
2022/03/07 05:00:25;;;;;;;11.48;4.35;;;3.70;99.90;;;;;;5081520;28;20039;-73
2022/03/07 05:02:51;;;;;;;8.15;4.35;;;3.40;99.90;;;;;;5089263;28;20044;-74
2022/03/07 05:05:18;;;;;;;7.80;4.13;;;3.50;99.90;;;;;;5082245;28;20043;-78
2022/03/07 05:07:44;;;;;;;7.35;4.00;;;3.60;99.90;;;;;;5081691;28;20047;-74
2022/03/07 05:10:10;;;;;;;7.88;4.43;;;3.70;99.90;;;;;;5107346;27;20057;-78
2022/03/07 05:12:36;;;;;;;6.93;4.53;;;5.10;99.90;;;;;;5103408;28;20044;-75
2022/03/07 05:15:08;;;;;;;5.78;4.53;;;3.30;99.90;;;;;;5088638;28;20051;-74
2022/03/07 05:17:44;;;;;;;5.05;4.35;;;3.50;99.90;;;;;;5082544;28;20195;-78
2022/03/07 05:20:11;;;;;;;6.57;4.43;;;3.50;99.90;;;;;;5089648;28;20041;-78
2022/03/07 05:22:38;;;;;;;9.43;5.07;;;3.10;99.90;;;;;;5109476;28;20052;-76
2022/03/07 05:25:04;;;;;;;5.70;4.10;;;3.60;99.90;;;;;;5090237;28;20046;-75
2022/03/07 05:27:31;;;;;;;8.20;4.72;;;2.80;99.90;;;;;;5111288;27;20626;-77
2022/03/07 05:29:56;;;;;;;6.30;4.63;;;3.90;99.90;;;;;;5084737;28;20042;-79
2022/03/07 05:32:22;;;;;;;7.07;4.13;;;2.90;99.90;;;;;;5071726;28;20059;-77
2022/03/07 05:34:48;;;;;;;6.65;4.28;;;3.20;99.90;;;;;;5077541;28;20040;-79
2022/03/07 05:37:14;;;;;;;6.97;4.22;;;3.20;99.90;;;;;;5093009;28;20053;-76
2022/03/07 05:39:39;;;;;;;7.10;4.63;;;3.00;99.90;;;;;;5083537;28;20070;-77
2022/03/07 05:42:05;;;;;;;7.55;4.57;;;3.20;99.90;;;;;;5041585;28;20040;-76
2022/03/07 05:44:31;;;;;;;7.07;4.50;;;3.40;99.90;;;;;;5080681;28;20827;-77
2022/03/07 05:46:57;;;;;;;8.77;4.15;;;3.70;99.90;;;;;;5075837;28;20126;-78
2022/03/07 05:49:23;;;;;;;9.10;4.97;;;5.10;99.90;;;;;;5091050;28;20105;-79
2022/03/07 05:51:49;;;;;;;9.02;4.82;;;3.00;99.90;;;;;;5099356;28;20044;-75
2022/03/07 05:54:14;;;;;;;9.65;6.25;;;3.30;99.90;;;;;;5101389;28;20095;-76
2022/03/07 05:56:40;;;;;;;9.25;5.68;;;3.50;99.90;;;;;;5091715;28;20128;-77
2022/03/07 05:59:06;;;;;;;9.00;6.28;;;3.70;99.90;;;;;;5091763;28;20059;-75
2022/03/07 06:01:32;;;;;;;8.15;5.18;;;3.50;99.90;;;;;;5092765;28;20356;-77
2022/03/07 06:03:58;;;;;;;9.48;6.35;;;3.90;99.90;;;;;;5071925;28;20100;-76
2022/03/07 06:06:23;;;;;;;10.88;6.78;;;3.50;99.90;;;;;;5111900;28;20070;-75
2022/03/07 06:08:49;;;;;;;7.05;5.53;;;3.90;99.90;;;;;;5062106;28;20104;-74
2022/03/07 06:11:17;;;;;;;8.13;5.80;;;3.60;99.90;;;;;;5077047;28;20067;-76
2022/03/07 06:13:43;;;;;;;10.52;6.45;;;3.90;99.90;;;;;;5073676;28;20354;-75
2022/03/07 06:16:09;;;;;;;9.77;6.72;;;4.70;99.90;;;;;;5121353;27;20490;-77
2022/03/07 06:18:35;;;;;;;14.15;8.60;;;3.80;99.90;;;;;;5115507;28;20063;-75
2022/03/07 06:21:01;;;;;;;9.98;6.78;;;4.20;99.90;;;;;;5099114;27;20031;-75
2022/03/07 06:23:27;;;;;;;12.95;6.50;;;3.90;99.90;;;;;;5106541;28;20043;-74
2022/03/07 06:25:53;;;;;;;9.70;7.05;;;4.30;99.90;;;;;;5098073;28;20067;-78
2022/03/07 06:28:19;;;;;;;9.60;6.53;;;4.20;99.90;;;;;;5109006;27;20040;-75
2022/03/07 06:30:48;;;;;;;14.32;7.32;;;4.30;99.90;;;;;;5120505;27;20046;-74
2022/03/07 06:33:15;;;;;;;9.80;6.88;;;4.30;99.90;;;;;;5113146;27;20051;-79
2022/03/07 06:35:41;;;;;;;10.45;5.75;;;4.10;99.90;;;;;;5089977;28;20046;-77
2022/03/07 06:38:07;;;;;;;10.98;6.50;;;4.00;99.90;;;;;;5093163;28;20239;-80
2022/03/07 06:40:33;;;;;;;12.15;6.22;;;4.20;99.90;;;;;;5097593;27;20744;-77
2022/03/07 06:43:00;;;;;;;10.45;6.57;;;4.10;99.90;;;;;;5095495;28;20038;-77
2022/03/07 06:45:28;;;;;;;9.13;6.15;;;4.10;99.90;;;;;;5117760;27;20145;-79
2022/03/07 06:47:53;;;;;;;11.13;6.40;;;4.20;99.90;;;;;;5113189;27;20036;-78
2022/03/07 06:50:19;;;;;;;8.05;5.93;;;4.30;99.90;;;;;;5109005;27;20058;-79
2022/03/07 06:52:45;;;;;;;9.25;5.68;;;4.50;99.90;;;;;;5111679;27;20039;-75
2022/03/07 06:55:12;;;;;;;12.82;8.95;;;6.00;99.90;;;;;;5094629;28;20049;-78
2022/03/07 06:57:39;;;;;;;12.10;8.18;;;4.70;99.90;;;;;;5095432;28;20040;-78
2022/03/07 07:00:08;;;;;;;18.80;10.05;;;5.20;99.90;;;;;;5095660;28;20047;-77
2022/03/07 07:02:34;;;;;;;17.27;11.85;;;5.50;99.90;;;;;;5096254;27;20043;-76
2022/03/07 07:05:02;;;;;;;18.27;12.35;;;5.90;99.90;;;;;;5077924;28;20443;-76
2022/03/07 07:07:28;;;;;;;18.95;10.82;;;6.20;99.90;;;;;;5084295;28;20100;-75
2022/03/07 07:09:54;;;;;;;13.20;9.90;;;6.80;99.90;;;;;;5110776;28;20047;-74
2022/03/07 07:12:20;;;;;;;9.32;7.45;;;6.90;99.90;;;;;;5099542;28;20096;-74
2022/03/07 07:14:45;;;;;;;8.15;6.32;;;7.00;99.90;;;;;;5081468;28;20487;-76
2022/03/07 07:17:11;;;;;;;7.88;5.88;;;6.70;99.90;;;;;;5060089;27;20046;-76
2022/03/07 07:19:37;;;;;;;10.60;5.43;;;6.70;99.90;;;;;;5094834;28;20039;-73
2022/03/07 07:22:03;;;;;;;9.13;5.53;;;6.90;99.90;;;;;;5082323;28;20046;-75
2022/03/07 07:24:29;;;;;;;7.13;4.85;;;6.80;99.90;;;;;;5077873;28;20132;-75
2022/03/07 07:26:54;;;;;;;9.07;5.13;;;7.00;99.90;;;;;;5092708;27;20057;-75
2022/03/07 07:29:20;;;;;;;6.78;4.88;;;6.80;99.90;;;;;;5076297;27;20035;-74
2022/03/07 07:31:47;;;;;;;6.20;4.80;;;7.00;99.90;;;;;;5094430;28;20043;-73
2022/03/07 07:34:14;;;;;;;5.63;3.95;;;6.70;99.90;;;;;;5102203;28;20444;-75
2022/03/07 07:36:40;;;;;;;7.07;4.30;;;6.90;99.90;;;;;;5093718;27;20413;-73
2022/03/07 07:39:05;;;;;;;7.00;3.80;;;6.90;99.90;;;;;;5102340;27;20043;-74
2022/03/07 07:41:31;;;;;;;5.55;3.75;;;6.60;99.90;;;;;;5071194;28;20042;-72
2022/03/07 07:43:57;;;;;;;5.47;3.83;;;6.80;99.90;;;;;;5091760;27;20119;-76
2022/03/07 07:46:23;;;;;;;5.90;4.45;;;7.00;99.90;;;;;;5088024;28;20113;-74
2022/03/07 07:48:48;;;;;;;6.13;4.13;;;6.90;99.90;;;;;;5061466;28;20391;-74
2022/03/07 07:51:14;;;;;;;9.90;4.30;;;6.70;99.90;;;;;;5060996;28;20104;-74
2022/03/07 07:53:40;;;;;;;6.82;4.90;;;7.00;99.90;;;;;;5092438;27;20050;-74
2022/03/07 07:56:05;;;;;;;9.57;4.65;;;7.10;99.90;;;;;;5073815;27;20031;-75
2022/03/07 07:58:31;;;;;;;7.75;4.97;;;7.20;99.90;;;;;;5080006;28;20134;-75
2022/03/07 08:00:57;;;;;;;5.72;4.25;;;7.10;99.90;;;;;;5102933;27;20031;-74
2022/03/07 08:03:23;;;;;;;7.53;3.97;;;7.00;99.90;;;;;;5067007;27;20042;-73
2022/03/07 08:05:48;;;;;;;7.90;4.30;;;7.40;99.90;;;;;;5123039;27;20420;-76
2022/03/07 08:08:15;;;;;;;5.63;4.00;;;7.60;99.90;;;;;;5085074;27;20035;-76
2022/03/07 08:10:41;;;;;;;5.70;3.70;;;7.30;99.90;;;;;;5102680;28;20095;-76
2022/03/07 08:13:07;;;;;;;6.93;4.18;;;7.30;99.90;;;;;;5111412;27;20123;-75
2022/03/07 08:15:33;;;;;;;5.63;3.65;;;7.60;99.90;;;;;;5110070;27;20122;-75
2022/03/07 08:17:58;;;;;;;7.45;4.07;;;7.70;99.90;;;;;;5094216;28;20055;-76
2022/03/07 08:20:25;;;;;;;5.93;3.70;;;7.90;99.90;;;;;;5110031;27;20040;-74
2022/03/07 08:22:52;;;;;;;7.03;3.90;;;7.50;99.90;;;;;;5111168;28;20322;-74
2022/03/07 08:25:19;;;;;;;9.02;3.70;;;7.70;99.90;;;;;;5109390;27;20436;-75
2022/03/07 08:27:45;;;;;;;5.07;3.83;;;7.30;99.90;;;;;;5111005;27;20038;-74
2022/03/07 08:30:13;;;;;;;13.48;4.10;;;7.70;99.90;;;;;;5102051;27;20145;-75
2022/03/07 08:32:40;;;;;;;8.70;4.07;;;7.80;99.90;;;;;;5113494;27;20068;-74
2022/03/07 08:35:07;;;;;;;4.35;3.20;;;7.70;99.90;;;;;;5090330;27;20047;-74
2022/03/07 08:37:33;;;;;;;8.90;3.65;;;7.70;99.90;;;;;;5097948;27;20076;-75
2022/03/07 08:40:00;;;;;;;6.20;3.70;;;7.50;99.90;;;;;;5113873;27;20092;-73
2022/03/07 08:42:26;;;;;;;4.05;3.30;;;7.90;99.90;;;;;;5107836;27;20336;-75
2022/03/07 08:44:52;;;;;;;6.75;3.67;;;7.90;99.90;;;;;;5119042;27;20118;-75
2022/03/07 08:47:19;;;;;;;5.00;3.35;;;8.30;99.90;;;;;;5087985;27;20593;-75
2022/03/07 08:49:45;;;;;;;5.40;3.38;;;8.30;99.90;;;;;;5084723;27;20374;-76
2022/03/07 08:52:10;;;;;;;4.93;3.35;;;7.90;99.90;;;;;;5094979;27;20032;-75
2022/03/07 08:54:36;;;;;;;5.95;3.47;;;8.30;99.90;;;;;;5109987;27;20047;-75
2022/03/07 08:57:02;;;;;;;8.13;3.40;;;8.40;99.90;;;;;;5105278;27;20036;-75
2022/03/07 08:59:28;;;;;;;5.47;3.40;;;8.70;99.90;;;;;;5080480;27;20031;-75
2022/03/07 09:01:58;;;;;;;5.57;3.35;;;8.50;99.90;;;;;;5090179;28;20054;-75
2022/03/07 09:04:24;;;;;;;7.10;3.67;;;8.20;99.90;;;;;;5109603;27;20048;-74
2022/03/07 09:06:54;;;;;;;6.40;3.55;;;8.10;99.90;;;;;;5108532;28;20035;-74
2022/03/07 09:09:20;;;;;;;7.75;4.18;;;8.10;99.90;;;;;;5074197;28;20044;-74
2022/03/07 09:11:47;;;;;;;6.28;3.22;;;8.20;99.90;;;;;;5103695;28;20134;-74
2022/03/07 09:14:13;;;;;;;3.85;2.80;;;8.30;99.90;;;;;;5075381;27;20032;-76
2022/03/07 09:16:39;;;;;;;3.90;3.00;;;8.50;99.90;;;;;;5090629;28;20392;-76
2022/03/07 09:19:05;;;;;;;3.80;2.22;;;8.30;99.90;;;;;;5109890;27;20034;-76
2022/03/07 09:21:31;;;;;;;10.07;2.47;;;7.90;99.90;;;;;;5072778;28;20037;-76
2022/03/07 09:23:57;;;;;;;6.43;2.38;;;8.30;99.90;;;;;;5077889;27;20038;-76
2022/03/07 09:26:23;;;;;;;6.60;2.45;;;8.10;99.90;;;;;;5070286;28;20036;-76
2022/03/07 09:28:48;;;;;;;6.95;2.22;;;8.30;99.90;;;;;;5071734;28;20087;-76
2022/03/07 09:31:14;;;;;;;5.00;2.13;;;8.30;99.90;;;;;;5071035;28;20036;-76
2022/03/07 09:33:40;;;;;;;3.58;2.40;;;8.10;99.90;;;;;;5072573;28;20050;-75
2022/03/07 09:36:06;;;;;;;6.15;2.28;;;8.30;99.90;;;;;;5083571;28;20043;-77
2022/03/07 09:38:34;;;;;;;4.00;1.90;;;7.90;99.90;;;;;;5092876;28;20104;-76
2022/03/07 09:41:00;;;;;;;3.00;2.08;;;8.30;99.90;;;;;;5122086;27;20062;-77
2022/03/07 09:43:27;;;;;;;4.70;1.98;;;8.40;99.90;;;;;;5094773;28;20044;-76
2022/03/07 09:45:53;;;;;;;3.63;1.90;;;8.80;99.90;;;;;;5074022;28;20080;-76
2022/03/07 09:48:21;;;;;;;3.63;1.85;;;8.40;99.90;;;;;;5082027;28;20048;-74
2022/03/07 09:50:47;;;;;;;2.63;1.75;;;8.10;99.90;;;;;;5067364;28;20079;-75
2022/03/07 09:53:17;;;;;;;3.75;2.05;;;8.20;99.90;;;;;;5061824;28;20306;-76
2022/03/07 09:55:44;;;;;;;3.95;2.22;;;8.10;99.90;;;;;;5075807;28;20039;-75
2022/03/07 09:58:10;;;;;;;3.10;1.80;;;7.80;99.90;;;;;;5080676;28;20044;-75
2022/03/07 10:00:41;;;;;;;4.22;1.65;;;8.70;99.90;;;;;;5061909;28;20044;-76
2022/03/07 10:03:11;;;;;;;5.00;1.50;;;8.50;99.90;;;;;;5099602;28;20432;-76
2022/03/07 10:05:41;;;;;;;4.07;1.50;;;8.50;99.90;;;;;;5085842;28;20039;-75
2022/03/07 10:08:08;;;;;;;5.20;1.40;;;8.50;99.90;;;;;;5096410;28;20112;-75
2022/03/07 10:10:40;;;;;;;3.47;1.40;;;8.80;99.90;;;;;;5068763;28;20043;-75
2022/03/07 10:13:11;;;;;;;3.47;1.40;;;8.00;99.90;;;;;;5083836;28;20568;-76
2022/03/07 10:15:38;;;;;;;5.53;1.33;;;8.70;99.90;;;;;;5084493;28;20046;-75
2022/03/07 10:18:04;;;;;;;3.28;1.45;;;8.90;99.90;;;;;;5084876;28;20043;-77
2022/03/07 10:20:31;;;;;;;3.67;1.63;;;9.00;99.90;;;;;;5085776;28;20635;-75
2022/03/07 10:23:00;;;;;;;4.72;1.45;;;8.90;99.90;;;;;;5096765;28;20054;-75
2022/03/07 10:25:29;;;;;;;4.68;1.42;;;8.40;99.90;;;;;;5096553;28;20135;-75
2022/03/07 10:27:57;;;;;;;6.38;2.08;;;8.50;99.90;;;;;;5101378;28;20035;-75
2022/03/07 10:30:27;;;;;;;4.28;1.75;;;8.40;99.90;;;;;;5102363;28;20039;-75
2022/03/07 10:33:00;;;;;;;7.60;1.90;;;8.50;99.90;;;;;;5096397;28;20085;-75
2022/03/07 10:35:29;;;;;;;5.32;1.80;;;8.80;99.90;;;;;;5095040;28;20046;-76
2022/03/07 10:37:57;;;;;;;2.50;1.83;;;8.70;99.90;;;;;;5095140;28;20158;-75
2022/03/07 10:40:23;;;;;;;2.92;1.60;;;9.10;99.90;;;;;;5105469;28;20755;-75
2022/03/07 10:42:50;;;;;;;4.30;1.60;;;8.80;99.90;;;;;;5092743;28;20079;-76
2022/03/07 10:45:16;;;;;;;3.58;1.60;;;9.20;99.90;;;;;;5101138;28;20628;-76
2022/03/07 10:47:42;;;;;;;6.10;1.85;;;8.50;99.90;;;;;;5067004;28;20451;-75
2022/03/07 10:50:08;;;;;;;4.80;1.70;;;8.60;99.90;;;;;;5100522;28;20111;-76
2022/03/07 10:52:39;;;;;;;4.53;1.60;;;8.70;99.90;;;;;;5083334;28;20067;-76
2022/03/07 10:55:07;;;;;;;3.97;1.40;;;9.00;99.90;;;;;;5087762;28;20039;-77
2022/03/07 10:57:41;;;;;;;2.40;1.60;;;8.70;99.90;;;;;;5100519;27;20028;-76
2022/03/07 11:00:12;;;;;;;4.45;1.80;;;8.90;99.90;;;;;;5087788;28;20716;-75
2022/03/07 11:02:43;;;;;;;4.10;1.70;;;9.10;99.90;;;;;;5089970;28;20042;-74
2022/03/07 11:05:10;;;;;;;4.20;1.70;;;9.10;99.90;;;;;;5084838;28;20127;-75
2022/03/07 11:07:45;;;;;;;3.47;1.85;;;8.70;99.90;;;;;;5092410;27;20086;-75
2022/03/07 11:10:12;;;;;;;3.83;1.80;;;9.10;99.90;;;;;;5114168;27;20050;-74
2022/03/07 11:12:38;;;;;;;4.68;1.60;;;9.20;99.90;;;;;;5091313;27;20035;-75
2022/03/07 11:15:09;;;;;;;3.72;1.85;;;8.70;99.90;;;;;;5118442;27;20419;-75
2022/03/07 11:17:42;;;;;;;6.20;1.85;;;9.50;99.90;;;;;;5106117;28;20075;-75
2022/03/07 11:20:13;;;;;;;2.17;1.33;;;9.70;99.90;;;;;;5094738;28;20035;-75
2022/03/07 11:22:39;;;;;;;3.05;1.55;;;10.10;99.90;;;;;;5089146;27;20118;-75
2022/03/07 11:25:07;;;;;;;3.40;1.70;;;9.60;99.90;;;;;;5092505;27;20130;-75
2022/03/07 11:27:35;;;;;;;3.78;1.80;;;9.10;99.90;;;;;;5070911;28;20031;-75
2022/03/07 11:30:21;;;;;;;4.85;1.67;;;9.90;99.90;;;;;;5105878;27;20071;-74
2022/03/07 11:32:52;;;;;;;3.03;1.50;;;10.00;99.90;;;;;;5088457;28;20043;-75
2022/03/07 11:35:18;;;;;;;4.88;1.98;;;9.30;99.90;;;;;;5105013;28;20043;-75
2022/03/07 11:37:44;;;;;;;3.13;1.63;;;9.30;99.90;;;;;;5100804;28;20422;-75
2022/03/07 11:40:19;;;;;;;4.95;1.50;;;9.20;99.90;;;;;;5093569;27;20040;-75
2022/03/07 11:42:45;;;;;;;2.70;1.60;;;9.30;99.90;;;;;;5096011;28;20050;-74
2022/03/07 11:45:16;;;;;;;2.95;1.73;;;9.40;99.90;;;;;;5071607;28;20040;-75
2022/03/07 11:47:43;;;;;;;3.90;1.80;;;9.40;99.90;;;;;;5084725;28;20046;-75
2022/03/07 11:50:09;;;;;;;3.80;1.50;;;9.00;99.90;;;;;;5097090;28;20039;-75
2022/03/07 11:52:35;;;;;;;2.75;1.63;;;9.00;99.90;;;;;;5087967;28;20040;-75
2022/03/07 11:55:08;;;;;;;2.78;1.45;;;9.30;99.90;;;;;;5094662;27;20496;-75
2022/03/07 11:57:43;;;;;;;4.47;1.75;;;9.60;99.90;;;;;;5097313;27;20067;-75
2022/03/07 12:00:20;;;;;;;;;;;9.00;99.90;;;;;;5102182;28;20122;-75
2022/03/07 12:02:49;;;;;;;3.75;1.70;;;8.60;99.90;;;;;;5104974;28;19920;-75
2022/03/07 12:05:25;;;;;;;3.50;1.70;;;8.50;99.90;;;;;;5104472;28;20052;-75
2022/03/07 12:07:52;;;;;;;3.30;1.75;;;8.40;99.90;;;;;;5104728;28;20051;-75
2022/03/07 12:10:19;;;;;;;3.92;1.50;;;8.10;99.90;;;;;;5084309;28;20039;-75
2022/03/07 12:12:45;;;;;;;2.78;2.00;;;8.50;99.90;;;;;;5085071;28;20151;-75
2022/03/07 12:15:13;;;;;;;2.95;1.70;;;8.90;99.90;;;;;;5097662;27;20130;-75
2022/03/07 12:17:39;;;;;;;4.70;1.58;;;8.90;99.90;;;;;;5118540;27;20043;-75
2022/03/07 12:20:06;;;;;;;3.33;1.50;;;9.00;99.90;;;;;;5106747;28;20148;-75
2022/03/07 12:22:34;;;;;;;2.78;1.48;;;8.50;99.90;;;;;;5089186;28;20044;-75
2022/03/07 12:25:02;;;;;;;2.30;1.30;;;8.60;99.90;;;;;;5107992;27;20042;-75
2022/03/07 12:27:28;;;;;;;3.25;1.83;;;8.40;99.90;;;;;;5122384;27;20043;-75
2022/03/07 12:29:53;;;;;;;2.83;1.80;;;8.90;99.90;;;;;;5088691;28;20044;-76
2022/03/07 12:32:20;;;;;;;5.85;1.80;;;9.00;99.90;;;;;;5085746;28;20047;-75
2022/03/07 12:34:46;;;;;;;2.40;1.60;;;8.70;99.90;;;;;;5083419;28;20043;-75
2022/03/07 12:37:20;;;;;;;2.30;1.20;;;9.40;99.90;;;;;;5085228;28;20519;-75
2022/03/07 12:39:55;;;;;;;5.05;2.30;;;10.00;99.90;;;;;;5099411;27;20073;-75
2022/03/07 12:42:27;;;;;;;3.25;2.10;;;9.90;99.90;;;;;;5099989;28;20475;-75
2022/03/07 12:44:53;;;;;;;2.30;1.85;;;9.60;99.90;;;;;;5102562;28;20038;-72
2022/03/07 12:47:27;;;;;;;3.45;2.08;;;10.10;99.90;;;;;;5100592;28;20036;-77
2022/03/07 13:54:39;;;;;;;1.25;1.00;;;8.70;90.70;;;;;;5041148;28;20075;-74
2022/03/07 13:57:06;;;;;;;1.35;1.10;;;8.70;91.60;;;;;;5044547;28;20064;-74
2022/03/07 13:59:32;;;;;;;1.50;1.30;;;8.80;97.50;;;;;;5061295;28;20319;-74